大阪空港の過去48時間の天気

大阪空港 (Osaka/Intl)

現在時刻: 2/27 23:51 JST (2/27 14:51 UTC) 以下の時間は現地時間です。

過去48時間のMETAR気象情報
時間 風向 風速(m/s) 視程 気温(℃) 湿度(%) 気圧(hPa) 天気現象
27 20:00 西 2 10km以上 5 65 1025
27 19:00 北西 2 10km以上 5 70 1025
27 18:00 西北西 4 10km以上 5 70 1025
27 17:00 北西 4 10km以上 8 53 1024
27 16:00 北北西 8 10km以上 7 53 1023
27 15:39 北西 9 10km以上 9 46 1023 周辺でしゅう雨
27 15:00 北北西 9 10km以上 9 46 1023 周辺でしゅう雨
27 14:00 北北西 10 10km以上 8 53 1023 弱いしゅう雨
27 13:00 北北西 8 10km以上 8 66 1023 周辺でしゅう雨
27 12:48 北北西 10 10km以上 7 66 1023 弱いしゅう雨
27 12:01 8 10km以上 6 87 1023 弱いしゅう雨
27 12:00 8 10km以上 5 87 1023 弱いしゅう雨
27 11:46 北北西 8 10km以上 8 57 1023 周辺でしゅう雨
27 11:15 北西 3 10km以上 8 71 1023 周辺でしゅう雨
27 11:00 北西 8 10km以上 6 81 1023 弱いしゅう雨
27 10:00 6 10km以上 6 81 1023 弱いしゅう雨
27 09:43 北北西 8 10km以上 7 61 1023 弱いしゅう雨
27 09:00 北北西 3 10km以上 6 76 1023
27 08:34 北北西 7 10km以上 5 81 1023 弱いしゅう雨
27 08:00 西 3 10km以上 5 81 1022 周辺でしゅう雨
27 07:00 西 2 10km以上 5 81 1022 弱いしゅう雨
27 06:00 西 2 10km以上 5 81 1021
27 05:00 西北西 2 10km以上 5 81 1020 周辺でしゅう雨
RJOO 271100Z 28004KT 230V310 9999 FEW025 05/M01 Q1025 RMK 1CU025 A3029
RJOO 271000Z 31004KT 9999 FEW025 05/M00 Q1025 RMK 1CU025 A3028
RJOO 270900Z 30007KT 9999 FEW025 SCT040 05/00 Q1025 RMK 1CU025 3CU040 A3028
RJOO 270800Z 32007KT 270V360 9999 FEW015 SCT040 08/M01 Q1024 RMK 1CU015 3CU040 A3025
RJOO 270700Z 33016KT 9999 FEW015 SCT040 07/M02 Q1023 RMK 1CU015 4CU040 A3023
RJOO 270639Z 32017G28KT 9999 VCSH FEW015 SCT040 09/M02 Q1023 RMK 1CU015 4CU040 A3022
RJOO 270600Z 33018KT 9999 VCSH FEW015 SCT035 09/M02 Q1023 RMK 1CU015 3CU035 A3021
RJOO 270500Z 34020G33KT 9999 -SHRA FEW015 SCT040 08/M01 Q1023 RMK 1CU015 3CU040 A3022 4000W
RJOO 270400Z 33015KT 9999 VCSH FEW010 SCT025 08/02 Q1023 RMK 1CU010 3CU025 A3021
RJOO 270348Z 33020G30KT 9999 -SHRA FEW010 SCT025 07/01 Q1023 RMK 1CU010 3CU025 A3022
RJOO 270301Z 01015G25KT 9999 -SHRA FEW015 BKN030 06/04 Q1023 RMK 1CU015 5CU030 A3023
RJOO 270300Z 01016KT 9999 -SHRA FEW015 BKN030 05/03 Q1023 RMK 1CU015 5CU030 A3023
RJOO 270246Z 33015KT 300V360 9999 VCSH FEW015 BKN035 08/00 Q1023 RMK 1CU015 5CU035 A3023
RJOO 270215Z 31005KT 240V350 9999 VCSH FEW006 SCT025 08/03 Q1023 RMK 1ST006 3CU025 A3023
RJOO 270200Z 32015KT 9999 -SHRA FEW006 SCT020 06/03 Q1023 RMK 1ST006 3CU020 A3023
RJOO 270100Z 01012KT 9999 -SHRA FEW008 BKN035 06/03 Q1023 RMK 1ST008 5CU035 A3023
RJOO 270043Z 33015KT 9999 -SHRA FEW010 BKN040 07/00 Q1023 RMK 1CU010 5CU040 A3022
RJOO 270000Z 33005KT 290V360 9999 FEW025 06/02 Q1023 RMK 1CU025 A3021
RJOO 262334Z 33013KT 9999 -SHRA FEW009 SCT030 BKN060 05/02 Q1023 RMK 1ST009 3CU030 5SC060 A3021
RJOO 262300Z 27005KT 240V310 9999 VCSH FEW006 SCT030 BKN060 05/02 Q1022 RMK 1ST006 3CU030 5SC060 A3021
RJOO 262200Z 26003KT 230V300 9999 -SHRA FEW009 BKN060 05/02 Q1022 RMK 1ST009 6SC060 A3018
RJOO 262100Z 28003KT 220V320 9999 FEW025 05/02 Q1021 RMK 1CU025 A3016
RJOO 262000Z 30004KT 9999 VCSH FEW025 BKN060 05/02 Q1020 RMK 1CU025 7SC060 A3015